Main page
METAR-TAF:

METAR-TAF

Airports :

Sliač Airport

Banská Bystrica, Slovakia

latitude: 48-38-17N, longitude: 019-08-03E, elevation: 318 m

Current weather observation

The report was made 37 minutes ago, at 22:00 UTC
Wind 1 kt from the East/Northeast
Temperature -4°C
Humidity 93%
Pressure 1037 hPa
Visibility: 0600 m
Overcast at a height of 200 ft
freezing fog

METAR: LZSL 212200Z 06001KT 0600 R36/1400U FZFG OVC002 M04/M05 Q1037

Time: 23:37 (22:37 UTC)

Forecast

The report was made 2 hours and 37 minutes ago, at 20:00 UTC
Forecast valid from 21 at 21 UTC to 22 at 06 UTC
Wind 2 kt from variable directions
Visibility: 0100 m
at a height of 100 ft
freezing fog
Temporary
from 21 at 21 UTC to 22 at 06 UTC
Visibility: 1000 m
Overcast at a height of 200 ft
mist

TAF: LZSL 212000Z 2121/2206 VRB02KT 0100 FZFG VV001 TEMPO 2121/2206 1000 BR OVC002

Weather observations and forecasts of more than 4000 airports (METAR and TAF reports).

The available stations are represented by yellow and red dots on the map.

Hover mouse over dot to see the name of the station.

Then click to see weather observations and forecasts.

To change the map : click on the green buttons with a black cross to zoom in, on the green button with a dash to zoom out, or on the green arrows for adjacent maps.


METAR-TAF: